Time;durP1;ratioP1;P1;durP2;ratioP2;P2;SDS_P1;SDS_P2;PMS_P1;PMS_P2;Temp;Humidity;BMP_temperature;BMP_pressure;BME280_temperature;BME280_humidity;BME280_pressure;Samples;Min_cycle;Max_cycle;Signal;HPM_P1;HPM_P2
2022/02/27 00:01:56;;;;;;;4.95;3.28;;;;;;;2.23;67.81;101065.03;4985168;28;20105;-42
2022/02/27 00:04:24;;;;;;;6.05;3.13;;;;;;;2.23;67.30;101056.50;4978472;28;20050;-41
2022/02/27 00:06:50;;;;;;;11.55;5.03;;;;;;;2.20;68.03;101051.22;4980790;28;20565;-43
2022/02/27 00:09:17;;;;;;;6.47;3.78;;;;;;;2.17;68.17;101044.31;4980000;28;20765;-43
2022/02/27 00:11:44;;;;;;;9.85;4.60;;;;;;;2.18;68.38;101040.94;4981701;28;20097;-45
2022/02/27 00:14:10;;;;;;;5.55;3.80;;;;;;;2.15;67.97;101046.78;4978601;28;20047;-45
2022/02/27 00:16:37;;;;;;;9.63;3.70;;;;;;;2.17;69.47;101034.06;4985112;28;20056;-42
2022/02/27 00:19:07;;;;;;;5.05;3.35;;;;;;;2.17;68.58;101036.63;4977147;28;20141;-41
2022/02/27 00:21:33;;;;;;;9.40;3.67;;;;;;;2.17;68.44;101046.84;4985659;28;20046;-45
2022/02/27 00:24:00;;;;;;;9.85;3.88;;;;;;;2.13;68.74;101047.50;4981936;28;20042;-41
2022/02/27 00:26:26;;;;;;;4.97;2.88;;;;;;;2.12;68.59;101045.75;4980697;28;20051;-39
2022/02/27 00:28:53;;;;;;;5.70;3.13;;;;;;;2.08;68.80;101066.84;4980903;28;20050;-42
2022/02/27 00:31:20;;;;;;;4.82;3.38;;;;;;;2.10;69.90;101052.47;4978339;28;20062;-41
2022/02/27 00:33:46;;;;;;;7.95;3.42;;;;;;;2.07;68.67;101054.88;4979878;28;20059;-42
2022/02/27 00:36:13;;;;;;;7.88;3.83;;;;;;;2.06;68.73;101048.88;4979273;28;20046;-44
2022/02/27 00:38:40;;;;;;;4.97;4.05;;;;;;;2.04;70.01;101059.06;4983702;28;20502;-46
2022/02/27 00:41:06;;;;;;;5.78;3.22;;;;;;;1.97;69.55;101057.00;4982341;28;20214;-43
2022/02/27 00:43:33;;;;;;;5.47;2.83;;;;;;;2.00;68.89;101057.16;4980710;28;20050;-41
2022/02/27 00:46:01;;;;;;;7.95;3.67;;;;;;;1.97;69.28;101062.09;4981397;28;20558;-41
2022/02/27 00:48:27;;;;;;;7.22;3.05;;;;;;;1.96;68.90;101055.22;4980785;28;20042;-42
2022/02/27 00:50:54;;;;;;;4.93;2.60;;;;;;;1.96;69.84;101052.66;4979942;28;20043;-43
2022/02/27 00:53:21;;;;;;;5.07;3.28;;;;;;;1.95;69.97;101056.03;4977584;28;20553;-42
2022/02/27 00:55:48;;;;;;;5.70;3.25;;;;;;;1.93;70.01;101052.53;4977833;28;20042;-41
2022/02/27 00:58:15;;;;;;;3.88;3.10;;;;;;;1.91;69.74;101051.56;4976958;28;20073;-46
2022/02/27 01:00:42;;;;;;;6.82;3.58;;;;;;;1.92;68.86;101050.75;4978184;28;20080;-46
2022/02/27 01:03:09;;;;;;;3.30;2.92;;;;;;;1.89;69.06;101053.19;4980198;28;20059;-41
2022/02/27 01:05:36;;;;;;;2.95;2.55;;;;;;;1.85;68.81;101046.16;4983018;28;20113;-41
2022/02/27 01:08:02;;;;;;;9.98;2.83;;;;;;;1.78;69.67;101042.44;4980873;28;20659;-44
2022/02/27 01:10:30;;;;;;;7.60;2.92;;;;;;;1.81;69.89;101040.03;4971004;28;20093;-43
2022/02/27 01:12:56;;;;;;;9.25;4.45;;;;;;;1.82;70.13;101035.81;4970033;28;20389;-42
2022/02/27 01:15:23;;;;;;;4.15;2.78;;;;;;;1.82;69.96;101035.81;4970606;28;20125;-42
2022/02/27 01:17:50;;;;;;;6.35;2.55;;;;;;;1.84;69.54;101029.06;4967283;28;20050;-40
2022/02/27 01:20:17;;;;;;;5.78;2.53;;;;;;;1.84;69.14;101034.19;4969096;28;20128;-42
2022/02/27 01:22:44;;;;;;;10.65;3.58;;;;;;;1.83;69.41;101029.88;4966068;28;20507;-41
2022/02/27 01:25:11;;;;;;;4.82;3.17;;;;;;;1.87;68.88;101030.13;4967317;28;20109;-41
2022/02/27 01:27:38;;;;;;;3.30;1.85;;;;;;;1.91;69.15;101042.25;4966178;28;20113;-46
2022/02/27 01:30:07;;;;;;;5.95;3.13;;;;;;;1.85;69.90;101035.94;4965584;28;20098;-51
2022/02/27 01:32:36;;;;;;;5.78;2.78;;;;;;;1.82;68.56;101038.38;4959956;28;20070;-42
2022/02/27 01:35:06;;;;;;;3.78;2.88;;;;;;;1.83;69.87;101032.44;4961924;28;20042;-47
2022/02/27 01:37:35;;;;;;;3.65;2.83;;;;;;;1.85;70.04;101038.50;4961080;28;20698;-46
2022/02/27 01:40:02;;;;;;;4.25;2.85;;;;;;;1.80;68.85;101039.13;4968162;28;20562;-45
2022/02/27 01:42:29;;;;;;;4.32;2.72;;;;;;;1.82;70.54;101034.09;4968003;28;20042;-45
2022/02/27 01:44:55;;;;;;;8.23;3.67;;;;;;;1.79;69.18;101037.41;4967314;28;20055;-42
2022/02/27 01:47:22;;;;;;;8.90;3.53;;;;;;;1.76;68.97;101032.13;4966123;28;20050;-43
2022/02/27 01:49:51;;;;;;;3.70;2.92;;;;;;;1.74;70.47;101033.75;4963377;28;20046;-43
2022/02/27 01:52:18;;;;;;;4.25;3.60;;;;;;;1.79;69.95;101031.44;4961491;28;20066;-41
2022/02/27 01:54:45;;;;;;;5.53;3.15;;;;;;;1.78;70.33;101024.53;4967635;28;20050;-43
2022/02/27 01:57:12;;;;;;;4.75;3.22;;;;;;;1.76;69.94;101032.13;4968130;28;20054;-42
2022/02/27 01:59:41;;;;;;;6.40;3.42;;;;;;;1.72;70.50;101019.16;4966337;28;20057;-41
2022/02/27 02:02:09;;;;;;;4.10;1.55;;;;;;;1.74;70.87;101023.53;4967126;28;20388;-42
2022/02/27 02:04:36;;;;;;;7.57;2.70;;;;;;;1.75;70.93;101016.72;4963972;28;20051;-42
2022/02/27 02:07:03;;;;;;;6.60;4.35;;;;;;;1.74;70.48;101020.09;4966428;28;20124;-43
2022/02/27 02:09:30;;;;;;;7.90;2.65;;;;;;;1.72;69.92;101022.56;4964937;28;20043;-44
2022/02/27 02:11:57;;;;;;;4.72;2.53;;;;;;;1.73;70.20;101021.78;4967498;28;20110;-42
2022/02/27 02:14:24;;;;;;;12.40;2.75;;;;;;;1.75;69.68;101019.28;4965750;28;20061;-40
2022/02/27 02:16:52;;;;;;;4.75;2.13;;;;;;;1.77;69.88;101026.25;4965652;28;20090;-43
2022/02/27 02:19:21;;;;;;;7.20;3.17;;;;;;;1.72;70.01;101030.22;4998339;28;20055;-47
2022/02/27 02:21:50;;;;;;;3.65;2.80;;;;;;;1.71;70.94;101033.59;4962447;28;20050;-43
2022/02/27 02:24:17;;;;;;;5.28;2.72;;;;;;;1.71;69.99;101038.69;4966895;28;20054;-44
2022/02/27 02:26:45;;;;;;;3.00;1.98;;;;;;;1.73;70.16;101036.22;4972454;28;20701;-42
2022/02/27 02:29:14;;;;;;;7.60;3.05;;;;;;;1.71;69.83;101033.59;4968514;28;20051;-41
2022/02/27 02:31:42;;;;;;;5.03;2.58;;;;;;;1.70;70.30;101036.94;4962441;28;20047;-43
2022/02/27 02:34:12;;;;;;;4.15;2.58;;;;;;;1.63;70.43;101034.91;4966190;28;20114;-47
2022/02/27 02:36:40;;;;;;;5.47;2.22;;;;;;;1.60;70.44;101033.06;4966315;28;20097;-44
2022/02/27 02:39:09;;;;;;;6.10;3.03;;;;;;;1.59;70.83;101033.00;4967494;28;20768;-44
2022/02/27 02:41:36;;;;;;;5.60;3.05;;;;;;;1.58;70.78;101028.69;4989741;28;20048;-44
2022/02/27 02:44:04;;;;;;;2.45;1.70;;;;;;;1.57;70.45;101030.34;4965455;28;20050;-43
2022/02/27 02:46:31;;;;;;;4.68;2.63;;;;;;;1.50;70.93;101024.06;4960506;28;20138;-41
2022/02/27 02:48:57;;;;;;;3.90;2.03;;;;;;;1.51;71.39;101015.59;4966076;28;20412;-43
2022/02/27 02:51:24;;;;;;;5.13;2.70;;;;;;;1.48;70.59;101015.44;4962982;28;20054;-42
2022/02/27 02:53:51;;;;;;;4.65;2.30;;;;;;;1.48;70.77;101004.34;4966382;28;20046;-42
2022/02/27 02:56:18;;;;;;;4.55;2.80;;;;;;;1.45;70.98;101005.06;4966136;28;20149;-41
2022/02/27 02:58:44;;;;;;;3.42;2.45;;;;;;;1.43;72.11;101006.69;4963584;28;20110;-44
2022/02/27 03:01:15;;;;;;;3.40;1.80;;;;;;;1.39;71.79;101004.78;4965955;28;20039;-42
2022/02/27 03:03:44;;;;;;;5.97;2.45;;;;;;;1.33;71.34;100999.34;4962255;28;20070;-43
2022/02/27 03:06:11;;;;;;;6.03;2.58;;;;;;;1.27;71.97;100994.81;4968748;28;20630;-43
2022/02/27 03:08:41;;;;;;;3.72;2.08;;;;;;;1.22;71.17;100994.56;4960852;28;20051;-43
2022/02/27 03:11:08;;;;;;;7.22;1.50;;;;;;;1.25;71.86;100997.28;4966584;28;20496;-43
2022/02/27 03:13:35;;;;;;;7.43;3.10;;;;;;;1.22;72.18;100984.38;4964532;28;20046;-41
2022/02/27 03:16:04;;;;;;;6.15;2.50;;;;;;;1.19;72.33;100986.78;4964618;28;20050;-45
2022/02/27 03:18:31;;;;;;;3.45;2.55;;;;;;;1.23;72.66;100988.69;4965686;28;20046;-41
2022/02/27 03:20:59;;;;;;;3.55;2.70;;;;;;;1.24;72.35;100985.34;4963395;28;20038;-43
2022/02/27 03:23:26;;;;;;;4.63;2.53;;;;;;;1.19;71.29;100984.25;4962559;28;20055;-46
2022/02/27 03:25:53;;;;;;;5.32;3.03;;;;;;;1.18;71.74;100990.13;4964283;28;20875;-41
2022/02/27 03:28:20;;;;;;;4.53;2.45;;;;;;;1.15;72.56;100987.44;4964849;28;20112;-42
2022/02/27 03:30:46;;;;;;;5.45;2.88;;;;;;;1.11;71.69;100980.38;4963435;28;20095;-40
2022/02/27 03:33:13;;;;;;;8.73;4.30;;;;;;;1.13;72.42;100981.34;4963662;28;20051;-43
2022/02/27 03:35:41;;;;;;;3.70;2.83;;;;;;;1.11;71.58;100988.03;4964047;28;20046;-44
2022/02/27 03:38:10;;;;;;;8.27;3.35;;;;;;;1.07;72.52;100981.94;4963826;28;20108;-44
2022/02/27 03:40:37;;;;;;;4.03;2.38;;;;;;;1.07;72.23;100983.59;4962300;28;20058;-45
2022/02/27 03:43:03;;;;;;;5.78;2.85;;;;;;;1.05;71.90;100991.19;4966622;28;20121;-43
2022/02/27 03:45:30;;;;;;;7.65;2.85;;;;;;;1.01;72.14;100990.13;4963478;28;20106;-41
2022/02/27 03:47:57;;;;;;;7.90;3.00;;;;;;;1.04;72.25;100991.09;4962937;28;20062;-45
2022/02/27 03:50:23;;;;;;;6.55;2.47;;;;;;;1.04;72.36;100996.22;4964797;28;20047;-41
2022/02/27 03:52:50;;;;;;;4.72;2.60;;;;;;;1.00;72.58;100987.50;4964010;28;20051;-43
2022/02/27 03:55:18;;;;;;;5.95;2.63;;;;;;;1.02;71.13;100980.81;4959121;28;20109;-45
2022/02/27 03:57:45;;;;;;;6.80;2.60;;;;;;;1.04;71.34;100991.09;4967469;28;20050;-44
2022/02/27 04:00:16;;;;;;;7.90;2.95;;;;;;;1.08;71.81;100987.91;4962866;28;20074;-44
2022/02/27 04:02:45;;;;;;;7.50;2.60;;;;;;;1.09;70.76;100989.66;4964421;28;20051;-44
2022/02/27 04:05:14;;;;;;;9.00;3.20;;;;;;;1.10;71.81;100983.75;4960700;28;20303;-43
2022/02/27 04:07:41;;;;;;;6.05;2.92;;;;;;;1.09;71.25;100971.78;4963445;28;20093;-43
2022/02/27 04:10:09;;;;;;;10.07;3.97;;;;;;;1.10;71.27;100973.53;4963772;28;20129;-43
2022/02/27 04:12:36;;;;;;;3.45;2.45;;;;;;;1.05;71.08;100972.44;4965114;28;20143;-44
2022/02/27 04:15:03;;;;;;;7.32;2.78;;;;;;;1.08;72.14;100973.47;4960314;28;20051;-41
2022/02/27 04:17:31;;;;;;;10.48;2.92;;;;;;;1.07;71.40;100968.28;4963980;28;20047;-43
2022/02/27 04:19:58;;;;;;;6.15;2.72;;;;;;;1.08;71.38;100973.47;4964166;28;20074;-42
2022/02/27 04:22:26;;;;;;;6.80;1.58;;;;;;;1.05;71.04;100977.53;4962625;28;21885;-42
2022/02/27 04:24:53;;;;;;;6.15;2.58;;;;;;;1.07;71.19;100970.81;4961620;28;20078;-39
2022/02/27 04:27:20;;;;;;;16.10;2.58;;;;;;;1.02;71.68;100966.38;4962302;28;20082;-44
2022/02/27 04:29:47;;;;;;;4.88;3.20;;;;;;;0.98;70.85;100966.16;4961526;28;20550;-43
2022/02/27 04:32:14;;;;;;;7.45;3.67;;;;;;;0.97;71.00;100962.72;4959210;28;20047;-40
2022/02/27 04:34:40;;;;;;;7.57;3.03;;;;;;;0.91;72.07;100975.16;4959991;28;20097;-43
2022/02/27 04:37:07;;;;;;;6.72;2.63;;;;;;;0.85;71.29;100964.66;4966520;28;20550;-43
2022/02/27 04:39:35;;;;;;;5.03;1.98;;;;;;;0.79;71.53;100969.41;4963888;28;20166;-43
2022/02/27 04:42:02;;;;;;;4.45;2.92;;;;;;;0.74;71.86;100967.50;4960460;28;20050;-42
2022/02/27 04:44:29;;;;;;;8.98;3.35;;;;;;;0.73;71.44;100975.97;4968221;28;20117;-42
2022/02/27 04:46:56;;;;;;;7.47;3.00;;;;;;;0.69;71.34;100984.25;4966502;28;20061;-41
2022/02/27 04:49:23;;;;;;;10.15;2.75;;;;;;;0.64;71.36;100990.75;4975202;28;20084;-43
2022/02/27 04:51:50;;;;;;;11.85;3.38;;;;;;;0.64;71.73;100983.09;4969447;28;20059;-42
2022/02/27 04:54:17;;;;;;;6.68;2.28;;;;;;;0.60;70.92;100968.44;4967897;28;20050;-43
2022/02/27 04:56:43;;;;;;;10.13;3.15;;;;;;;0.48;71.56;100974.66;4964349;28;20055;-42
2022/02/27 04:59:10;;;;;;;3.95;2.67;;;;;;;0.40;71.95;100964.84;4965268;28;20044;-39
2022/02/27 05:01:38;;;;;;;8.02;3.65;;;;;;;0.38;72.68;100957.97;4965414;28;20046;-41
2022/02/27 05:04:05;;;;;;;6.50;3.15;;;;;;;0.41;72.51;100957.28;4970504;28;20051;-42
2022/02/27 05:06:33;;;;;;;5.57;2.60;;;;;;;0.41;72.86;100961.50;4966300;28;20046;-46
2022/02/27 05:08:59;;;;;;;7.18;3.03;;;;;;;0.42;73.02;100961.59;4966005;28;20700;-41
2022/02/27 05:11:26;;;;;;;6.63;2.47;;;;;;;0.44;72.51;100954.88;4962083;28;20180;-45
2022/02/27 05:13:53;;;;;;;11.65;2.85;;;;;;;0.44;72.37;100957.44;4968048;28;20050;-43
2022/02/27 05:16:20;;;;;;;10.13;3.10;;;;;;;0.45;72.67;100959.22;4966857;28;20054;-41
2022/02/27 05:18:46;;;;;;;3.95;3.30;;;;;;;0.46;72.45;100958.41;4968201;28;20396;-42
2022/02/27 05:21:13;;;;;;;6.45;2.17;;;;;;;0.47;73.22;100947.41;4967069;28;20125;-43
2022/02/27 05:23:41;;;;;;;5.95;2.67;;;;;;;0.51;72.56;100949.31;4969041;28;20085;-50
2022/02/27 05:26:07;;;;;;;4.68;1.70;;;;;;;0.52;72.62;100945.09;4968417;28;20848;-47
2022/02/27 05:28:34;;;;;;;6.25;2.58;;;;;;;0.48;72.70;100944.06;4962325;28;20113;-46
2022/02/27 05:31:01;;;;;;;6.75;2.70;;;;;;;0.45;72.46;100949.00;4966042;28;20101;-44
2022/02/27 05:33:27;;;;;;;8.45;2.40;;;;;;;0.47;72.30;100941.44;4968777;28;20079;-45
2022/02/27 05:35:54;;;;;;;9.68;2.45;;;;;;;0.49;72.17;100925.44;4978018;28;20129;-43
2022/02/27 05:38:20;;;;;;;5.35;1.00;;;;;;;0.49;72.14;100920.34;4964646;28;20427;-46
2022/02/27 05:40:47;;;;;;;3.63;1.35;;;;;;;0.49;72.88;100930.53;4967898;28;20493;-46
2022/02/27 05:43:14;;;;;;;4.80;2.00;;;;;;;0.48;72.04;100926.22;4965558;28;20450;-40
2022/02/27 05:45:40;;;;;;;9.40;2.72;;;;;;;0.49;72.06;100930.53;4971307;28;20593;-44
2022/02/27 05:48:07;;;;;;;4.88;3.60;;;;;;;0.46;72.11;100943.13;4965450;28;20046;-41
2022/02/27 05:50:34;;;;;;;6.97;2.47;;;;;;;0.47;72.45;100937.22;4966846;28;20703;-42
2022/02/27 05:53:00;;;;;;;6.40;3.03;;;;;;;0.45;71.93;100933.72;4966951;28;20061;-43
2022/02/27 05:55:27;;;;;;;3.45;2.10;;;;;;;0.48;71.80;100941.50;4974236;28;20137;-42
2022/02/27 05:57:59;;;;;;;4.32;2.17;;;;;;;0.47;72.20;100932.09;4968966;28;20399;-45
2022/02/27 06:00:26;;;;;;;3.70;2.53;;;;;;;0.48;72.23;100928.75;4966186;28;20066;-46
2022/02/27 06:02:53;;;;;;;5.28;2.60;;;;;;;0.46;72.45;100920.16;4968543;28;20042;-45
2022/02/27 06:05:20;;;;;;;7.57;2.38;;;;;;;0.48;72.31;100926.22;4965338;28;20077;-41
2022/02/27 06:07:47;;;;;;;11.75;2.70;;;;;;;0.47;72.07;100906.63;4969850;28;20047;-46
2022/02/27 06:10:13;;;;;;;4.47;2.42;;;;;;;0.47;72.03;100911.72;4968409;28;20117;-46
2022/02/27 06:12:48;;;;;;;5.93;3.00;;;;;;;0.47;72.45;100911.72;4972240;28;20097;-42
2022/02/27 06:15:16;;;;;;;5.35;2.53;;;;;;;0.49;72.16;100910.13;4968451;28;20093;-44
2022/02/27 06:17:43;;;;;;;8.95;1.88;;;;;;;0.47;71.94;100909.16;4993932;28;20681;-45
2022/02/27 06:20:10;;;;;;;3.33;2.58;;;;;;;0.47;72.17;100914.28;4966093;28;20499;-41
2022/02/27 06:22:42;;;;;;;5.35;2.50;;;;;;;0.47;72.65;100924.47;4967131;28;20066;-41
2022/02/27 06:25:10;;;;;;;4.68;4.18;;;;;;;0.47;71.77;100927.00;4969369;28;20051;-46
2022/02/27 06:27:42;;;;;;;4.95;2.58;;;;;;;0.47;72.05;100924.47;4951048;28;20076;-42
2022/02/27 06:30:12;;;;;;;3.92;0.98;;;;;;;0.44;72.70;100931.94;4967486;28;20462;-46
2022/02/27 06:32:38;;;;;;;4.55;2.35;;;;;;;0.46;71.99;100935.47;4967884;28;20062;-44
2022/02/27 06:35:07;;;;;;;4.78;2.95;;;;;;;0.44;72.16;100937.03;4971817;28;20054;-42
2022/02/27 06:37:34;;;;;;;4.60;2.17;;;;;;;0.42;72.31;100928.44;4968347;28;20050;-41
2022/02/27 06:40:00;;;;;;;6.18;2.85;;;;;;;0.42;72.57;100923.34;4965937;28;20510;-42
2022/02/27 06:42:27;;;;;;;5.13;2.28;;;;;;;0.40;72.35;100940.22;4969534;28;20058;-42
2022/02/27 06:44:53;;;;;;;12.70;1.55;;;;;;;0.39;72.65;100930.84;4967161;28;20444;-41
2022/02/27 06:47:20;;;;;;;3.38;2.45;;;;;;;0.38;72.17;100931.63;4970607;28;20055;-41
2022/02/27 06:49:47;;;;;;;4.57;2.25;;;;;;;0.37;72.71;100940.06;4969839;28;20046;-44
2022/02/27 06:52:14;;;;;;;6.20;2.55;;;;;;;0.33;72.58;100949.22;4967675;28;20050;-46
2022/02/27 06:54:40;;;;;;;3.67;2.78;;;;;;;0.30;72.31;100948.19;4968196;28;20137;-42
2022/02/27 06:57:10;;;;;;;2.72;1.25;;;;;;;0.29;72.64;100956.59;4968705;28;20510;-44
2022/02/27 06:59:36;;;;;;;4.15;2.83;;;;;;;0.23;72.65;100952.94;4976609;28;20125;-43
2022/02/27 07:02:03;;;;;;;7.28;2.67;;;;;;;0.20;72.92;100952.78;4968039;28;20047;-43
2022/02/27 07:04:30;;;;;;;3.22;2.40;;;;;;;0.16;72.70;100948.31;4975535;28;20402;-42
2022/02/27 07:06:56;;;;;;;9.45;2.95;;;;;;;0.13;73.17;100948.13;4967712;28;20046;-42
2022/02/27 07:09:24;;;;;;;3.78;2.42;;;;;;;0.09;73.16;100948.75;4969450;28;20039;-43
2022/02/27 07:11:52;;;;;;;7.93;3.38;;;;;;;0.07;72.86;100951.22;4967193;28;20059;-43
2022/02/27 07:14:20;;;;;;;5.63;2.50;;;;;;;0.06;73.08;100952.03;4997687;28;20475;-42
2022/02/27 07:16:47;;;;;;;5.60;2.08;;;;;;;0.05;73.60;100942.63;4967540;28;20058;-41
2022/02/27 07:19:15;;;;;;;4.80;2.90;;;;;;;0.06;73.54;100949.47;4970144;28;20094;-46
2022/02/27 07:21:42;;;;;;;3.22;1.98;;;;;;;0.03;73.35;100944.22;4970845;28;20106;-47
2022/02/27 07:24:09;;;;;;;5.20;2.28;;;;;;;0.07;73.87;100935.09;4981277;28;20553;-47
2022/02/27 07:26:36;;;;;;;5.03;2.03;;;;;;;0.04;73.62;100940.00;4964780;28;20051;-47
2022/02/27 07:29:03;;;;;;;3.88;2.22;;;;;;;0.06;73.79;100938.41;4973040;28;20105;-43
2022/02/27 07:31:30;;;;;;;7.97;4.28;;;;;;;0.06;73.60;100948.59;4970858;28;20134;-48
2022/02/27 07:34:00;;;;;;;9.13;2.42;;;;;;;0.09;73.46;100953.88;4964810;28;20058;-46
2022/02/27 07:36:27;;;;;;;5.82;2.22;;;;;;;0.12;73.07;100944.72;4964620;28;20403;-42
2022/02/27 07:38:53;;;;;;;3.13;2.47;;;;;;;0.13;73.66;100950.69;4960721;28;20051;-44
2022/02/27 07:41:21;;;;;;;6.05;3.10;;;;;;;0.17;73.73;100952.59;4966671;28;20094;-44
2022/02/27 07:43:54;;;;;;;5.88;3.00;;;;;;;0.22;73.73;100950.31;4964921;28;20116;-48
2022/02/27 07:46:21;;;;;;;5.93;2.83;;;;;;;0.24;74.16;100944.50;4970098;28;20090;-42
2022/02/27 07:48:48;;;;;;;5.68;2.47;;;;;;;0.27;73.72;100950.56;4966495;28;20050;-43
2022/02/27 07:51:14;;;;;;;5.95;3.63;;;;;;;0.32;73.43;100955.13;4968574;28;20056;-46
2022/02/27 07:53:41;;;;;;;4.97;2.55;;;;;;;0.37;73.69;100953.69;4966468;28;20051;-42
2022/02/27 07:56:08;;;;;;;4.20;2.88;;;;;;;0.43;73.08;100948.03;4966651;28;20047;-40
2022/02/27 07:58:34;;;;;;;5.43;2.90;;;;;;;0.52;73.65;100957.84;4966314;28;20077;-44
2022/02/27 08:01:02;;;;;;;8.48;1.45;;;;;;;0.77;73.48;100959.13;4961959;28;20427;-44
2022/02/27 08:03:29;;;;;;;7.55;3.10;;;;;;;1.01;73.00;100951.88;4961075;28;20138;-42
2022/02/27 08:05:56;;;;;;;7.38;2.90;;;;;;;1.34;72.70;100952.59;4956151;28;20093;-43
2022/02/27 08:08:28;;;;;;;6.22;1.27;;;;;;;1.63;70.80;100938.72;4959420;28;20519;-46
2022/02/27 08:10:55;;;;;;;5.57;2.28;;;;;;;1.99;70.06;100945.50;4973021;28;20039;-43
2022/02/27 08:13:22;;;;;;;4.93;2.70;;;;;;;2.45;69.78;100945.88;4956939;28;20089;-42
2022/02/27 08:15:48;;;;;;;5.55;2.10;;;;;;;2.98;67.72;100945.59;4958756;28;20050;-42
2022/02/27 08:18:16;;;;;;;6.85;2.72;;;;;;;3.56;66.14;100956.53;4955738;28;20766;-45
2022/02/27 08:20:44;;;;;;;11.98;2.90;;;;;;;3.96;64.18;100964.06;4962644;28;20110;-45
2022/02/27 08:23:10;;;;;;;3.88;2.42;;;;;;;4.41;62.82;100960.63;4966628;28;20082;-43
2022/02/27 08:25:37;;;;;;;8.00;2.63;;;;;;;4.82;61.71;100962.94;4960020;28;20047;-42
2022/02/27 08:28:04;;;;;;;8.40;2.75;;;;;;;5.25;60.08;100949.84;4966560;28;20109;-44
2022/02/27 08:30:30;;;;;;;7.50;3.53;;;;;;;5.44;60.16;100947.91;4964838;28;20807;-45
2022/02/27 08:32:57;;;;;;;6.60;2.97;;;;;;;5.61;58.17;100946.72;4963991;28;20051;-45
2022/02/27 08:35:23;;;;;;;6.60;3.13;;;;;;;5.76;57.52;100946.38;4960492;28;20082;-45
2022/02/27 08:37:50;;;;;;;6.95;2.45;;;;;;;5.92;58.52;100947.69;4965012;28;20050;-48
2022/02/27 08:40:16;;;;;;;6.78;3.00;;;;;;;6.06;56.67;100931.88;4962406;28;20109;-44
2022/02/27 08:42:43;;;;;;;4.82;1.67;;;;;;;6.33;55.52;100938.66;4965664;28;20415;-42
2022/02/27 08:45:10;;;;;;;4.00;3.15;;;;;;;6.72;55.47;100933.72;4962886;28;20150;-48
2022/02/27 08:47:36;;;;;;;4.53;2.47;;;;;;;6.75;56.38;100944.09;4961317;28;20047;-48
2022/02/27 08:50:04;;;;;;;6.80;2.78;;;;;;;6.98;54.54;100938.69;4956838;28;20039;-43
2022/02/27 08:52:36;;;;;;;3.60;2.60;;;;;;;7.12;55.22;100936.50;4966248;28;20046;-44
2022/02/27 08:55:04;;;;;;;6.20;2.53;;;;;;;7.30;54.20;100938.66;4961859;28;20538;-46
2022/02/27 08:57:30;;;;;;;5.38;2.75;;;;;;;7.53;53.59;100938.34;4966631;28;20110;-45
2022/02/27 08:59:57;;;;;;;4.75;2.70;;;;;;;8.00;53.90;100934.25;4967012;28;20101;-48
2022/02/27 09:02:23;;;;;;;9.98;3.25;;;;;;;8.29;51.84;100941.75;4968999;28;20102;-45
2022/02/27 09:04:50;;;;;;;5.15;2.50;;;;;;;8.49;51.77;100934.44;4963086;28;20050;-46
2022/02/27 09:07:17;;;;;;;3.45;2.10;;;;;;;8.85;51.49;100942.91;4965304;28;20058;-48
2022/02/27 09:09:45;;;;;;;8.75;4.40;;;;;;;9.26;50.87;100940.16;4964956;28;20134;-46
2022/02/27 09:12:12;;;;;;;5.75;2.90;;;;;;;9.63;49.70;100954.56;4971540;28;20133;-47
2022/02/27 09:14:41;;;;;;;5.68;3.22;;;;;;;9.46;48.28;100949.97;4966261;28;20109;-45
2022/02/27 09:17:08;;;;;;;7.00;3.83;;;;;;;9.49;48.73;100942.25;4970979;28;20051;-47
2022/02/27 09:19:35;;;;;;;7.57;3.35;;;;;;;9.77;48.33;100947.88;4966227;28;20050;-48
2022/02/27 09:22:03;;;;;;;5.30;2.65;;;;;;;9.86;48.08;100947.13;4957855;28;20047;-44
2022/02/27 09:24:29;;;;;;;6.28;3.50;;;;;;;9.94;47.84;100949.84;4967855;28;20054;-48
2022/02/27 09:26:56;;;;;;;7.32;3.30;;;;;;;10.19;47.78;100950.19;4963882;28;20105;-45
2022/02/27 09:29:23;;;;;;;8.32;3.38;;;;;;;10.14;47.42;100941.50;4994288;28;20680;-51
2022/02/27 09:31:51;;;;;;;6.93;2.70;;;;;;;10.05;47.02;100951.69;4966188;28;20055;-47
2022/02/27 09:34:18;;;;;;;6.90;2.60;;;;;;;10.15;47.03;100946.69;4965882;28;20070;-49
2022/02/27 09:36:44;;;;;;;9.63;2.38;;;;;;;10.08;46.88;100946.56;4963866;28;20063;-49
2022/02/27 09:39:11;;;;;;;8.90;3.08;;;;;;;9.99;47.20;100937.84;4963196;28;20047;-48
2022/02/27 09:41:38;;;;;;;5.53;3.03;;;;;;;10.37;47.31;100948.69;4967790;28;20065;-43
2022/02/27 09:44:05;;;;;;;7.45;3.35;;;;;;;10.36;46.68;100959.88;4969509;28;20043;-45
2022/02/27 09:46:32;;;;;;;7.25;3.10;;;;;;;10.60;46.59;100950.72;4967486;28;20054;-45
2022/02/27 09:48:59;;;;;;;4.95;2.63;;;;;;;10.78;46.27;100940.56;4967028;28;20058;-51
2022/02/27 09:51:26;;;;;;;5.72;5.22;;;;;;;10.99;45.70;100948.53;4967981;28;20546;-49
2022/02/27 09:53:53;;;;;;;6.57;3.85;;;;;;;11.01;46.48;100947.69;4965173;28;20581;-47
2022/02/27 09:56:20;;;;;;;6.57;3.28;;;;;;;11.04;45.74;100939.97;4966677;28;20059;-46
2022/02/27 09:58:47;;;;;;;5.85;2.72;;;;;;;11.23;45.18;100942.72;4964452;28;20043;-47
2022/02/27 10:01:16;;;;;;;4.90;3.17;;;;;;;11.32;45.24;100932.41;4961738;28;20133;-48
2022/02/27 10:03:44;;;;;;;11.27;3.63;;;;;;;11.30;45.60;100939.34;4970303;28;20147;-46
2022/02/27 10:06:13;;;;;;;5.85;3.47;;;;;;;11.53;46.12;100946.44;4966109;28;20054;-47
2022/02/27 10:08:43;;;;;;;5.45;3.05;;;;;;;11.51;44.64;100937.75;4969719;28;20558;-47
2022/02/27 10:11:12;;;;;;;6.57;3.15;;;;;;;11.69;45.44;100937.03;4966639;28;21437;-49
2022/02/27 10:13:42;;;;;;;5.15;2.20;;;;;;;11.47;44.09;100946.38;4968772;28;20479;-49
2022/02/27 10:16:11;;;;;;;6.97;3.58;;;;;;;11.54;44.79;100936.91;4966262;28;20068;-45
2022/02/27 10:18:44;;;;;;;6.25;3.72;;;;;;;11.37;44.61;100929.00;4968415;28;20047;-44
2022/02/27 10:21:22;;;;;;;5.63;2.72;;;;;;;11.25;44.13;100924.59;4966739;28;20546;-49
2022/02/27 10:24:11;;;;;;;4.75;2.58;;;;;;;11.04;43.84;100929.59;4963123;28;20050;-49
2022/02/27 10:26:43;;;;;;;4.50;2.75;;;;;;;11.26;44.38;100932.38;4968395;28;20054;-46
2022/02/27 10:29:20;;;;;;;6.90;3.40;;;;;;;11.45;44.58;100927.31;4967543;28;20055;-46
2022/02/27 10:31:50;;;;;;;7.00;3.05;;;;;;;11.51;44.30;100929.97;4968547;28;20050;-50
2022/02/27 10:34:21;;;;;;;4.72;3.53;;;;;;;11.51;44.67;100922.19;4963298;28;20050;-45
2022/02/27 10:36:54;;;;;;;6.75;2.38;;;;;;;11.62;43.51;100929.19;4966857;28;20746;-48
2022/02/27 10:39:43;;;;;;;8.13;3.38;;;;;;;11.79;44.49;100917.19;4965533;28;20059;-48
2022/02/27 10:42:30;;;;;;;10.30;3.15;;;;;;;11.89;44.29;100918.09;4964903;28;20105;-48
2022/02/27 10:44:59;;;;;;;5.35;2.95;;;;;;;11.76;43.57;100909.38;4961619;28;20042;-45
2022/02/27 10:47:30;;;;;;;6.63;3.38;;;;;;;11.72;44.47;100910.22;4962176;28;20055;-44
2022/02/27 10:49:58;;;;;;;4.20;3.72;;;;;;;11.63;42.75;100911.03;4962990;28;20055;-46
2022/02/27 10:52:28;;;;;;;5.43;3.30;;;;;;;11.37;42.42;100908.25;4965383;28;20105;-46
2022/02/27 10:54:57;;;;;;;6.35;3.10;;;;;;;11.18;43.33;100902.94;4979476;28;20094;-48
2022/02/27 10:57:26;;;;;;;5.88;3.80;;;;;;;11.39;44.75;100906.53;4960438;28;20097;-46
2022/02/27 10:59:55;;;;;;;6.60;3.65;;;;;;;11.25;44.00;100899.50;4965343;28;20553;-48
2022/02/27 11:02:24;;;;;;;5.78;3.08;;;;;;;11.15;42.79;100898.56;4967419;28;20514;-46
2022/02/27 11:04:52;;;;;;;4.40;3.20;;;;;;;11.00;44.59;100894.13;4967031;28;20046;-49
2022/02/27 11:07:19;;;;;;;7.78;3.53;;;;;;;10.85;45.09;100901.75;4967957;28;20058;-50
2022/02/27 11:09:47;;;;;;;3.88;1.38;;;;;;;10.48;45.96;100910.88;4966358;28;20474;-45
2022/02/27 11:12:14;;;;;;;6.68;3.00;;;;;;;10.18;46.32;100901.84;4966673;28;20047;-45
2022/02/27 11:14:44;;;;;;;9.90;3.35;;;;;;;9.77;46.87;100890.94;4964213;28;20556;-45
2022/02/27 11:17:12;;;;;;;4.97;2.72;;;;;;;9.57;48.31;100892.38;4969345;28;20077;-47
2022/02/27 11:19:41;;;;;;;6.38;2.72;;;;;;;9.31;48.19;100885.09;4965846;28;20055;-47
2022/02/27 11:22:07;;;;;;;7.75;2.90;;;;;;;9.21;49.46;100890.13;4967666;28;20046;-48
2022/02/27 11:24:36;;;;;;;6.72;3.50;;;;;;;8.93;49.49;100894.81;4965281;28;20077;-45
2022/02/27 11:27:05;;;;;;;4.50;2.90;;;;;;;8.92;49.56;100898.22;4952024;28;20046;-48
2022/02/27 11:29:32;;;;;;;6.28;2.78;;;;;;;8.86;49.39;100898.13;4966231;28;20046;-46
2022/02/27 11:32:00;;;;;;;4.70;2.55;;;;;;;8.69;49.49;100898.69;4964679;28;20059;-50
2022/02/27 11:34:29;;;;;;;7.65;3.38;;;;;;;8.64;50.28;100897.72;4960373;28;20042;-49